Grand Island, New York
Current Conditions -  °F | °C
As of 4:53 PM on Friday 24 Oct 2014 (Local Time) from KIAG Reporting Station
Broken Clouds Broken Clouds  
Wind Chill: 52°   Ceiling: 26000
Heat Index: 52°   Visibility: 10mi
Dew Point: 36°   Wind: 10mph
Humidity: 54%   Direction: 250°WSW
Pressure: 29.95"   Gusts: NA
Location:  43.02°N, 78.96°W
Report Text: KIAG 242053Z 25009KT 10SM BKN260 11/02 A2995 RMK AO2 SLP148 T01110022 56011
Loading
Personal Weather Stations






























Interactive Weather Map
Tropical Storm Tracking
New forecast layout! Learn more

10-Day Weather Forecast

Advertisements
Track Severe Weather on mobile